Mount Sunapee, New Hampshire
Current Conditions -  °F | °C
As of 4:53 AM on Tuesday 21 Oct 2014 (Local Time) from KLEB Reporting Station
Light Rain Light Rain  
Wind Chill: 44°   Ceiling: 5500
Heat Index: 44°   Visibility: 10mi
Dew Point: 40°   Wind: 0mph
Humidity: 85%   Direction: NA
Pressure: 29.96"   Gusts: NA
Location:  43.3732°N, 72.0415°W
Report Text: KLEB 210853Z AUTO 00000KT 10SM -RA OVC055 07/04 A2996 RMK AO2 RAB0754E24B44 SLP147 P0000 60000 T00670044 53002
Loading
Personal Weather Stations






























Interactive Weather Map
Tropical Storm Tracking
New forecast layout! Learn more

10-Day Weather Forecast

Advertisements
Track Severe Weather on mobile